Time;durP1;ratioP1;P1;durP2;ratioP2;P2;SDS_P1;SDS_P2;PMS_P1;PMS_P2;Temp;Humidity;BMP_temperature;BMP_pressure;BME280_temperature;BME280_humidity;BME280_pressure;Samples;Min_cycle;Max_cycle;Signal;HPM_P1;HPM_P2
2022/01/19 00:01:32;;;;;;;18.67;11.90;;;6.80;99.90;;;;;;5042339;28;20096;-85
2022/01/19 00:03:58;;;;;;;18.30;12.15;;;6.80;99.90;;;;;;5043498;28;20164;-85
2022/01/19 00:06:23;;;;;;;20.90;11.07;;;6.90;99.90;;;;;;5041952;28;20137;-86
2022/01/19 00:08:50;;;;;;;22.17;12.95;;;6.80;99.90;;;;;;5040886;28;20371;-86
2022/01/19 00:11:16;;;;;;;19.83;12.50;;;6.80;99.90;;;;;;5042628;28;20026;-86
2022/01/19 00:13:41;;;;;;;20.75;12.82;;;6.80;99.90;;;;;;5038534;28;20282;-86
2022/01/19 00:16:07;;;;;;;23.40;11.80;;;6.70;99.90;;;;;;5037631;28;20036;-86
2022/01/19 00:18:33;;;;;;;20.85;13.68;;;6.70;99.90;;;;;;5035272;28;20034;-85
2022/01/19 00:20:59;;;;;;;23.70;13.95;;;6.70;99.90;;;;;;5041041;28;20307;-85
2022/01/19 00:23:25;;;;;;;19.95;13.70;;;6.60;99.90;;;;;;5038520;28;20036;-85
2022/01/19 00:25:52;;;;;;;23.83;13.60;;;6.60;99.90;;;;;;5042625;28;20033;-85
2022/01/19 00:28:19;;;;;;;19.23;12.75;;;6.60;99.90;;;;;;5040936;28;20028;-85
2022/01/19 00:30:44;;;;;;;18.67;12.50;;;6.70;99.90;;;;;;5042903;28;20029;-85
2022/01/19 00:33:10;;;;;;;20.33;13.15;;;6.80;99.90;;;;;;5043168;28;20079;-85
2022/01/19 00:35:37;;;;;;;22.83;13.30;;;6.80;99.90;;;;;;5043575;28;20083;-85
2022/01/19 00:38:04;;;;;;;23.33;14.00;;;6.70;99.90;;;;;;5036050;28;20363;-85
2022/01/19 00:40:30;;;;;;;21.33;13.98;;;6.60;99.90;;;;;;5036515;28;20033;-85
2022/01/19 00:42:55;;;;;;;22.55;13.48;;;6.60;99.90;;;;;;5040009;28;20022;-86
2022/01/19 00:45:22;;;;;;;21.13;14.05;;;6.50;99.90;;;;;;5041495;28;20032;-86
2022/01/19 00:47:48;;;;;;;22.35;13.63;;;6.50;99.90;;;;;;5038421;28;20025;-85
2022/01/19 00:50:18;;;;;;;21.83;13.32;;;6.60;99.90;;;;;;5041647;28;20017;-85
2022/01/19 00:52:43;;;;;;;22.15;13.45;;;6.50;99.90;;;;;;5039288;28;20022;-86
2022/01/19 00:55:11;;;;;;;22.17;13.30;;;6.60;99.90;;;;;;5042625;28;20333;-85
2022/01/19 00:57:38;;;;;;;22.25;13.30;;;6.50;99.90;;;;;;5039011;28;20103;-86
2022/01/19 01:00:10;;;;;;;22.33;12.95;;;6.50;99.90;;;;;;5042464;28;20025;-85
2022/01/19 01:02:35;;;;;;;20.70;13.93;;;6.50;99.90;;;;;;5042041;28;20030;-85
2022/01/19 01:05:02;;;;;;;21.63;12.95;;;6.50;99.90;;;;;;5037577;28;20053;-85
2022/01/19 01:07:28;;;;;;;21.63;13.55;;;6.50;99.90;;;;;;5038808;28;20317;-86
2022/01/19 01:09:55;;;;;;;23.73;13.35;;;6.50;99.90;;;;;;5042374;28;20073;-85
2022/01/19 01:12:26;;;;;;;21.65;12.90;;;6.50;99.90;;;;;;5041562;28;20030;-85
2022/01/19 01:20:20;;;;;;;23.35;12.60;;;6.40;99.90;;;;;;5036602;28;20341;-85
2022/01/19 01:22:47;;;;;;;22.38;13.43;;;6.50;99.90;;;;;;5041053;28;20018;-85
2022/01/19 01:25:12;;;;;;;21.83;13.20;;;6.50;99.90;;;;;;5041661;28;20080;-85
2022/01/19 01:27:39;;;;;;;21.85;13.10;;;6.40;99.90;;;;;;5033576;28;20055;-86
2022/01/19 01:30:06;;;;;;;24.67;12.85;;;6.40;99.90;;;;;;5040755;28;20021;-85
2022/01/19 01:32:32;;;;;;;22.13;12.90;;;6.40;99.90;;;;;;5036385;28;20033;-85
2022/01/19 01:34:58;;;;;;;19.20;12.70;;;6.50;99.90;;;;;;5040353;28;20075;-85
2022/01/19 01:37:23;;;;;;;21.63;12.25;;;6.40;99.90;;;;;;5035788;28;20092;-85
2022/01/19 01:39:49;;;;;;;21.55;13.52;;;6.40;99.90;;;;;;5039869;28;20040;-85
2022/01/19 01:42:18;;;;;;;23.55;13.52;;;6.40;99.90;;;;;;5041611;28;20217;-85
2022/01/19 01:44:48;;;;;;;20.92;13.55;;;6.50;99.90;;;;;;5042089;28;20105;-86
2022/01/19 01:47:16;;;;;;;22.98;13.77;;;6.40;99.90;;;;;;5042087;28;20017;-85
2022/01/19 01:53:26;;;;;;;26.15;13.52;;;6.40;99.90;;;;;;5035264;28;20332;-85
2022/01/19 01:55:15;;;;;;;21.02;13.00;;;6.50;99.90;;;;;;5031191;28;20079;-85
2022/01/19 01:57:41;;;;;;;22.80;12.32;;;6.50;99.90;;;;;;5038439;28;20038;-86
2022/01/19 02:00:10;;;;;;;21.17;13.10;;;6.50;99.90;;;;;;5031548;28;20683;-85
2022/01/19 02:02:36;;;;;;;23.17;13.00;;;6.50;99.90;;;;;;5034908;28;20022;-85
2022/01/19 02:05:02;;;;;;;24.50;13.05;;;6.40;99.90;;;;;;5041475;28;20020;-85
2022/01/19 02:10:14;;;;;;;21.73;12.52;;;6.30;99.90;;;;;;5041931;28;20021;-85
2022/01/19 02:23:44;;;;;;;23.58;14.27;;;6.10;99.90;;;;;;5035893;28;20039;-85
2022/01/19 02:26:16;;;;;;;26.67;14.80;;;6.20;99.90;;;;;;5032937;28;20215;-85
2022/01/19 02:42:26;;;;;;;27.33;14.32;;;6.20;99.90;;;;;;4991388;28;20105;-86
2022/01/19 02:49:55;;;;;;;26.98;15.75;;;6.20;99.90;;;;;;5037034;28;20029;-86
2022/01/19 02:52:22;;;;;;;26.40;15.27;;;6.30;99.90;;;;;;5039469;28;20045;-85
2022/01/19 02:54:49;;;;;;;24.88;14.27;;;6.20;99.90;;;;;;5034032;28;20022;-86
2022/01/19 02:57:15;;;;;;;24.88;14.98;;;6.20;99.90;;;;;;5031525;28;20029;-85
2022/01/19 03:10:32;;;;;;;23.67;13.52;;;6.40;99.90;;;;;;5036555;28;20505;-85
2022/01/19 03:12:58;;;;;;;26.35;14.30;;;6.40;99.90;;;;;;5039803;28;20040;-86
2022/01/19 03:15:24;;;;;;;21.48;13.88;;;6.40;99.90;;;;;;5033993;28;20029;-85
2022/01/19 03:17:49;;;;;;;24.70;14.70;;;6.40;99.90;;;;;;5033588;28;20068;-85
2022/01/19 03:20:15;;;;;;;23.80;13.73;;;6.40;99.90;;;;;;5033224;28;20183;-86
2022/01/19 03:22:55;;;;;;;21.80;13.32;;;6.40;99.90;;;;;;5031491;28;20091;-85
2022/01/19 03:25:21;;;;;;;24.92;13.43;;;6.50;99.90;;;;;;5032610;28;20125;-85
2022/01/19 03:27:47;;;;;;;21.27;13.65;;;6.40;99.90;;;;;;5037514;28;20217;-86
2022/01/19 03:30:18;;;;;;;22.35;13.23;;;6.40;99.90;;;;;;5034077;28;20033;-86
2022/01/19 03:32:44;;;;;;;20.92;12.75;;;6.40;99.90;;;;;;5037438;28;20026;-85
2022/01/19 03:35:11;;;;;;;21.02;12.45;;;6.40;99.90;;;;;;5035004;28;20053;-86
2022/01/19 03:37:37;;;;;;;25.38;14.18;;;6.40;99.90;;;;;;5038332;28;20030;-85
2022/01/19 03:40:06;;;;;;;25.17;13.68;;;6.40;99.90;;;;;;5034455;28;20033;-86
2022/01/19 03:42:31;;;;;;;23.17;12.52;;;6.40;99.90;;;;;;5032947;28;20036;-85
2022/01/19 03:44:57;;;;;;;24.40;13.35;;;6.30;99.90;;;;;;5032706;28;20022;-85
2022/01/19 03:47:26;;;;;;;25.77;13.02;;;6.30;99.90;;;;;;5034696;28;20025;-86
2022/01/19 03:49:52;;;;;;;26.10;15.05;;;6.30;99.90;;;;;;5035504;28;20021;-85
2022/01/19 03:52:17;;;;;;;26.67;15.35;;;6.30;99.90;;;;;;5029875;28;20033;-86
2022/01/19 03:54:44;;;;;;;23.65;14.15;;;6.30;99.90;;;;;;5037861;28;20086;-85
2022/01/19 03:57:10;;;;;;;26.63;14.20;;;6.30;99.90;;;;;;5038660;28;20021;-85
2022/01/19 03:59:36;;;;;;;23.60;14.30;;;6.40;99.90;;;;;;5043059;28;20036;-86
2022/01/19 04:02:02;;;;;;;26.17;14.15;;;6.40;99.90;;;;;;5039996;28;20298;-86
2022/01/19 04:07:09;;;;;;;22.83;13.90;;;6.50;99.90;;;;;;5040153;28;20033;-85
2022/01/19 04:09:38;;;;;;;25.88;14.45;;;6.40;99.90;;;;;;5038424;28;20217;-86
2022/01/19 04:12:06;;;;;;;25.02;14.68;;;6.40;99.90;;;;;;5041855;28;20076;-86
2022/01/19 04:14:33;;;;;;;27.02;14.77;;;6.50;99.90;;;;;;5034630;28;20033;-86
2022/01/19 04:17:25;;;;;;;26.58;14.40;;;6.50;99.90;;;;;;5037158;28;20074;-86
2022/01/19 04:19:51;;;;;;;25.52;14.48;;;6.50;99.90;;;;;;5031637;28;20122;-85
2022/01/19 04:22:19;;;;;;;21.52;14.35;;;6.50;99.90;;;;;;5038938;28;20026;-85
2022/01/19 04:24:46;;;;;;;26.80;14.57;;;6.40;99.90;;;;;;5037030;28;20025;-85
2022/01/19 04:29:55;;;;;;;23.48;14.60;;;6.40;99.90;;;;;;5043053;28;20037;-85
2022/01/19 04:32:33;;;;;;;23.85;13.80;;;6.40;99.90;;;;;;5043421;28;20328;-86
2022/01/19 04:35:02;;;;;;;24.70;14.25;;;6.50;99.90;;;;;;5042916;28;20065;-85
2022/01/19 05:04:55;;;;;;;22.50;14.50;;;6.30;99.90;;;;;;5042454;28;20040;-86
2022/01/19 05:07:39;;;;;;;23.20;14.73;;;6.30;99.90;;;;;;5037987;28;20026;-86
2022/01/19 05:15:35;;;;;;;22.42;13.65;;;6.30;99.90;;;;;;5039495;28;20120;-85
2022/01/19 05:18:03;;;;;;;26.67;15.43;;;6.40;99.90;;;;;;5036184;28;20032;-86
2022/01/19 05:20:29;;;;;;;24.02;15.02;;;6.50;99.90;;;;;;5036757;28;20031;-86
2022/01/19 05:22:55;;;;;;;25.65;15.73;;;6.50;99.90;;;;;;5036183;28;20021;-86
2022/01/19 05:25:21;;;;;;;23.45;13.55;;;6.40;99.90;;;;;;5038097;28;20031;-86
2022/01/19 05:27:47;;;;;;;21.02;12.68;;;6.40;99.90;;;;;;5038236;28;20071;-85
2022/01/19 05:30:14;;;;;;;21.13;13.98;;;6.30;99.90;;;;;;5037902;28;20041;-86
2022/01/19 05:32:40;;;;;;;21.23;13.13;;;6.30;99.90;;;;;;5036921;28;20017;-85
2022/01/19 05:35:06;;;;;;;24.58;14.00;;;6.40;99.90;;;;;;5035038;28;20085;-85
2022/01/19 05:37:36;;;;;;;24.15;13.38;;;6.40;99.90;;;;;;5035575;28;20029;-86
2022/01/19 05:40:07;;;;;;;21.55;13.52;;;6.30;99.90;;;;;;5039009;28;20033;-86
2022/01/19 05:42:33;;;;;;;20.60;13.32;;;6.20;99.90;;;;;;5039197;28;20466;-85
2022/01/19 05:44:59;;;;;;;21.42;12.85;;;6.30;99.90;;;;;;5034350;28;20256;-86
2022/01/19 05:47:25;;;;;;;20.15;13.32;;;6.20;99.90;;;;;;5035773;28;20029;-86
2022/01/19 05:49:51;;;;;;;20.05;13.07;;;6.10;99.90;;;;;;5036539;28;20029;-88
2022/01/19 05:52:16;;;;;;;21.60;12.95;;;6.20;99.90;;;;;;5039608;28;20214;-85
2022/01/19 05:54:42;;;;;;;20.15;13.32;;;6.20;99.90;;;;;;5036800;28;20052;-85
2022/01/19 05:57:08;;;;;;;21.48;13.98;;;6.20;99.90;;;;;;5041768;28;20032;-86
2022/01/19 05:59:34;;;;;;;21.35;13.65;;;6.20;99.90;;;;;;5038074;28;20063;-86
2022/01/19 06:02:00;;;;;;;22.85;14.13;;;6.10;99.90;;;;;;5038199;28;20185;-85
2022/01/19 06:04:26;;;;;;;24.73;14.88;;;6.00;99.90;;;;;;5037730;28;20189;-85
2022/01/19 06:06:56;;;;;;;24.55;14.93;;;6.10;99.90;;;;;;5034052;28;20235;-86
2022/01/19 06:12:04;;;;;;;24.55;15.35;;;6.10;99.90;;;;;;5034857;28;20022;-86
2022/01/19 06:14:30;;;;;;;25.17;15.10;;;6.10;99.90;;;;;;5036226;28;20013;-85
2022/01/19 06:16:56;;;;;;;23.65;15.90;;;6.00;99.90;;;;;;5035903;28;20045;-85
2022/01/19 06:19:22;;;;;;;23.98;14.65;;;6.00;99.90;;;;;;5031495;28;20562;-85
2022/01/19 06:21:47;;;;;;;24.13;15.80;;;6.00;99.90;;;;;;5039234;28;20021;-86
2022/01/19 06:24:14;;;;;;;25.65;16.13;;;6.00;99.90;;;;;;5037487;28;20302;-86
2022/01/19 06:26:39;;;;;;;26.33;16.40;;;5.90;99.90;;;;;;5032348;28;20041;-86
2022/01/19 06:29:05;;;;;;;26.85;15.90;;;6.00;99.90;;;;;;5030678;28;20478;-85
2022/01/19 06:31:31;;;;;;;22.40;15.65;;;5.90;99.90;;;;;;5029905;28;20115;-86
2022/01/19 06:33:56;;;;;;;23.75;15.70;;;5.90;99.90;;;;;;5029734;28;20030;-86
2022/01/19 06:36:22;;;;;;;21.35;14.02;;;5.90;99.90;;;;;;5029394;28;20502;-86
2022/01/19 06:38:48;;;;;;;26.25;16.50;;;5.80;99.90;;;;;;5029673;28;20033;-86
2022/01/19 06:41:14;;;;;;;25.30;16.23;;;5.90;99.90;;;;;;5028182;28;20178;-86
2022/01/19 06:43:40;;;;;;;27.50;17.17;;;5.70;99.90;;;;;;5029931;28;20025;-86
2022/01/19 06:46:05;;;;;;;23.70;15.15;;;5.80;99.90;;;;;;5031867;28;20108;-85
2022/01/19 06:48:31;;;;;;;25.38;15.75;;;5.90;99.90;;;;;;5030478;28;20031;-86
2022/01/19 06:50:57;;;;;;;24.48;15.43;;;5.90;99.90;;;;;;5029983;28;20033;-86
2022/01/19 06:53:23;;;;;;;24.92;16.77;;;5.90;99.90;;;;;;5030215;28;20104;-85
2022/01/19 06:55:48;;;;;;;25.67;15.07;;;5.80;99.90;;;;;;5030117;28;20040;-86
2022/01/19 06:58:14;;;;;;;24.08;15.85;;;5.80;99.90;;;;;;5029850;28;20083;-86
2022/01/19 07:00:40;;;;;;;23.10;15.25;;;5.80;99.90;;;;;;5030180;28;20029;-85
2022/01/19 07:03:06;;;;;;;25.05;16.15;;;5.90;99.90;;;;;;5029807;28;20029;-86
2022/01/19 07:05:34;;;;;;;24.63;14.75;;;5.80;99.90;;;;;;5031677;28;20022;-86
2022/01/19 07:08:00;;;;;;;22.80;14.77;;;5.90;99.90;;;;;;5029517;28;20044;-86
2022/01/19 07:10:31;;;;;;;23.65;14.65;;;5.80;99.90;;;;;;5030139;28;20521;-85
2022/01/19 07:13:01;;;;;;;24.80;15.13;;;5.80;99.90;;;;;;5030086;28;20056;-86
2022/01/19 07:15:27;;;;;;;22.35;14.02;;;5.80;99.90;;;;;;5028889;28;20022;-87
2022/01/19 07:17:52;;;;;;;22.48;14.07;;;5.90;99.90;;;;;;5028611;28;20071;-86
2022/01/19 07:20:18;;;;;;;22.60;14.15;;;5.90;99.90;;;;;;5029994;28;20108;-86
2022/01/19 07:22:44;;;;;;;21.45;13.68;;;6.00;99.90;;;;;;5029434;28;20032;-85
2022/01/19 07:25:10;;;;;;;21.75;13.65;;;6.00;99.90;;;;;;5029992;28;20033;-86
2022/01/19 07:27:36;;;;;;;21.83;13.95;;;6.00;99.90;;;;;;5031860;28;20321;-87
2022/01/19 07:30:04;;;;;;;21.55;12.02;;;6.10;99.90;;;;;;5028412;28;20021;-85
2022/01/19 07:32:34;;;;;;;19.50;12.80;;;6.00;99.90;;;;;;5018283;28;20329;-85
2022/01/19 07:35:00;;;;;;;20.27;13.35;;;6.00;99.90;;;;;;5029438;28;20052;-86
2022/01/19 07:37:26;;;;;;;18.48;11.68;;;6.10;99.90;;;;;;5033302;28;20029;-85
2022/01/19 07:39:53;;;;;;;17.23;12.00;;;6.10;99.90;;;;;;5033560;28;20147;-85
2022/01/19 07:42:19;;;;;;;21.65;12.77;;;6.00;99.90;;;;;;5033135;28;20029;-85
2022/01/19 07:44:45;;;;;;;21.67;12.85;;;6.10;99.90;;;;;;5033853;28;20045;-85
2022/01/19 07:47:12;;;;;;;25.85;15.10;;;6.10;99.90;;;;;;5033315;28;20052;-84
2022/01/19 07:49:37;;;;;;;25.30;15.45;;;6.30;99.90;;;;;;5031729;28;20116;-84
2022/01/19 07:52:03;;;;;;;18.05;12.98;;;6.40;99.90;;;;;;5032560;28;20100;-84
2022/01/19 07:54:29;;;;;;;25.23;14.50;;;6.40;99.90;;;;;;5032300;28;20457;-84
2022/01/19 07:56:55;;;;;;;28.67;14.20;;;6.30;99.90;;;;;;5047605;28;20025;-84
2022/01/19 07:59:21;;;;;;;21.05;12.93;;;6.40;99.90;;;;;;5032676;28;20033;-85
2022/01/19 08:01:47;;;;;;;19.88;12.40;;;6.40;99.90;;;;;;5031371;28;20018;-84
2022/01/19 08:04:13;;;;;;;18.92;11.75;;;6.40;99.90;;;;;;5031157;28;20021;-84
2022/01/19 08:06:38;;;;;;;18.58;12.02;;;6.40;99.90;;;;;;5032041;28;20025;-84
2022/01/19 08:09:05;;;;;;;17.60;11.10;;;6.50;99.90;;;;;;5031999;28;20029;-84
2022/01/19 08:11:31;;;;;;;18.58;11.95;;;6.50;99.90;;;;;;5032098;28;20432;-84
2022/01/19 08:13:56;;;;;;;19.23;13.27;;;6.50;99.90;;;;;;5031999;28;20029;-85
2022/01/19 08:16:22;;;;;;;20.23;12.77;;;6.60;99.90;;;;;;5032702;28;20017;-85
2022/01/19 08:18:48;;;;;;;19.95;12.27;;;6.60;99.90;;;;;;5030626;28;20531;-84
2022/01/19 08:21:14;;;;;;;19.02;11.55;;;6.70;99.90;;;;;;5032052;28;20104;-84
2022/01/19 08:23:40;;;;;;;18.67;11.93;;;6.60;99.90;;;;;;5031486;28;20103;-84
2022/01/19 08:26:06;;;;;;;19.52;12.38;;;6.70;99.90;;;;;;5029949;28;20025;-85
2022/01/19 08:28:31;;;;;;;19.08;12.57;;;6.80;99.90;;;;;;5032290;28;20018;-85
2022/01/19 08:30:57;;;;;;;20.65;11.90;;;6.80;99.90;;;;;;5047472;28;20497;-84
2022/01/19 08:33:23;;;;;;;27.75;17.27;;;6.80;99.90;;;;;;5029849;28;20045;-85
2022/01/19 08:35:48;;;;;;;27.02;17.08;;;6.80;99.90;;;;;;5031163;28;20112;-84
2022/01/19 08:38:14;;;;;;;24.30;14.02;;;6.80;99.90;;;;;;5030325;28;20112;-85
2022/01/19 08:40:40;;;;;;;24.50;14.35;;;6.80;99.90;;;;;;5036104;28;20490;-89
2022/01/19 08:43:06;;;;;;;20.05;11.93;;;6.80;99.90;;;;;;5031552;28;20045;-89
2022/01/19 08:45:32;;;;;;;21.25;13.85;;;6.80;99.90;;;;;;5031765;28;20064;-90
2022/01/19 08:47:58;;;;;;;20.75;13.43;;;6.70;99.90;;;;;;5031112;28;20022;-75
2022/01/19 08:50:24;;;;;;;22.95;13.93;;;6.60;99.90;;;;;;5032124;28;20032;-90
2022/01/19 08:52:51;;;;;;;26.42;15.85;;;6.60;99.90;;;;;;5029811;28;20021;-90
2022/01/19 08:55:17;;;;;;;22.83;14.63;;;6.70;99.90;;;;;;5030531;28;20104;-90
2022/01/19 08:57:44;;;;;;;22.38;12.25;;;6.60;99.90;;;;;;5030941;28;20374;-91
2022/01/19 09:00:14;;;;;;;26.65;15.52;;;6.50;99.90;;;;;;5029153;28;20037;-90
2022/01/19 09:02:39;;;;;;;29.05;17.63;;;6.50;99.90;;;;;;5031498;28;20386;-94
2022/01/19 09:05:06;;;;;;;25.98;16.98;;;6.60;99.90;;;;;;5030215;28;20028;-90
2022/01/19 09:07:32;;;;;;;19.42;11.68;;;6.70;99.90;;;;;;5030457;28;20064;-90
2022/01/19 09:09:58;;;;;;;24.88;15.27;;;6.60;99.90;;;;;;5030716;28;20064;-94
2022/01/19 09:12:25;;;;;;;39.10;25.00;;;6.60;99.90;;;;;;5030254;28;20068;-89
2022/01/19 09:14:51;;;;;;;22.60;16.35;;;6.50;99.90;;;;;;5029767;28;20036;-89
2022/01/19 09:17:17;;;;;;;23.85;14.02;;;6.60;99.90;;;;;;5030354;28;20022;-89
2022/01/19 09:19:43;;;;;;;65.00;34.40;;;6.70;99.90;;;;;;5031430;28;20044;-89
2022/01/19 09:22:10;;;;;;;69.68;36.70;;;6.80;99.90;;;;;;5031158;28;20371;-89
2022/01/19 09:24:38;;;;;;;26.35;14.30;;;6.80;99.90;;;;;;5030807;28;20482;-89
2022/01/19 09:27:04;;;;;;;17.35;11.63;;;6.80;99.90;;;;;;5030103;28;20049;-89
2022/01/19 09:29:30;;;;;;;20.50;12.55;;;6.70;99.90;;;;;;5029793;28;20036;-89
2022/01/19 09:31:57;;;;;;;22.52;14.32;;;6.70;99.90;;;;;;5029819;28;20386;-89
2022/01/19 09:34:23;;;;;;;19.65;13.20;;;6.70;99.90;;;;;;5029174;28;20029;-90
2022/01/19 09:36:49;;;;;;;20.48;11.82;;;6.80;99.90;;;;;;5030990;28;20034;-90
2022/01/19 09:39:18;;;;;;;18.17;10.80;;;6.70;99.90;;;;;;5029782;28;20036;-89
2022/01/19 09:41:45;;;;;;;19.77;11.63;;;6.70;99.90;;;;;;5031275;28;20437;-90
2022/01/19 09:44:11;;;;;;;19.30;11.75;;;6.80;99.90;;;;;;5029435;28;20083;-89
2022/01/19 09:46:37;;;;;;;19.02;11.27;;;6.80;99.90;;;;;;5029484;28;20025;-89
2022/01/19 09:49:05;;;;;;;25.67;14.07;;;6.80;99.90;;;;;;5029427;28;20379;-89
2022/01/19 09:51:31;;;;;;;23.33;12.85;;;6.90;99.90;;;;;;5028494;28;20025;-89
2022/01/19 09:53:57;;;;;;;26.60;14.77;;;6.90;99.90;;;;;;5029250;28;20104;-89
2022/01/19 09:56:23;;;;;;;24.85;13.38;;;7.00;99.90;;;;;;5029867;28;20109;-89
2022/01/19 09:58:49;;;;;;;28.08;14.20;;;6.90;99.90;;;;;;5030798;28;20033;-89
2022/01/19 10:01:20;;;;;;;37.63;18.85;;;7.00;99.90;;;;;;5030905;28;20017;-88
2022/01/19 10:03:46;;;;;;;32.15;16.83;;;7.00;99.90;;;;;;5028766;28;20368;-88
2022/01/19 10:06:17;;;;;;;27.77;15.88;;;7.10;99.90;;;;;;5028531;28;20033;-89
2022/01/19 10:08:57;;;;;;;22.92;14.10;;;7.10;99.90;;;;;;5030189;28;20029;-90
2022/01/19 10:17:02;;;;;;;;;;;7.30;99.90;;;;;;5031157;28;20040;-89
2022/01/19 10:19:32;;;;;;;17.58;11.18;;;7.20;99.90;;;;;;5030492;28;19913;-89
2022/01/19 10:22:13;;;;;;;21.95;12.70;;;7.20;99.90;;;;;;5028238;28;20032;-89
2022/01/19 10:25:03;;;;;;;22.95;13.02;;;7.00;99.90;;;;;;5028168;28;20030;-88
2022/01/19 10:27:33;;;;;;;23.50;13.05;;;7.00;99.90;;;;;;5010609;28;20025;-89
2022/01/19 10:30:02;;;;;;;22.73;13.35;;;7.00;99.90;;;;;;5009182;28;20034;-89
2022/01/19 10:32:30;;;;;;;25.85;13.23;;;7.10;99.90;;;;;;5009230;28;20080;-90
2022/01/19 10:34:56;;;;;;;22.58;13.35;;;7.20;99.90;;;;;;5014220;28;20092;-88
2022/01/19 10:37:28;;;;;;;23.27;13.60;;;7.20;99.90;;;;;;5008624;28;20030;-88
2022/01/19 10:39:57;;;;;;;21.10;12.68;;;7.30;99.90;;;;;;5010180;28;20104;-89
2022/01/19 10:42:31;;;;;;;22.88;14.07;;;7.30;99.90;;;;;;5008880;28;20453;-88
2022/01/19 10:45:04;;;;;;;22.35;12.88;;;7.40;99.90;;;;;;5009463;28;20399;-88
2022/01/19 10:47:46;;;;;;;23.08;13.20;;;7.40;99.90;;;;;;5010445;28;20026;-88
2022/01/19 10:50:33;;;;;;;20.30;13.30;;;7.50;99.90;;;;;;5008883;28;20030;-88
2022/01/19 10:53:01;;;;;;;22.33;12.60;;;7.50;99.90;;;;;;5023779;28;20037;-88
2022/01/19 10:55:28;;;;;;;30.80;14.82;;;7.50;99.90;;;;;;5009968;28;20030;-88
2022/01/19 10:57:55;;;;;;;25.02;14.15;;;7.50;99.90;;;;;;5010251;28;20053;-88
2022/01/19 11:00:23;;;;;;;20.90;13.35;;;7.50;99.90;;;;;;5007782;28;20038;-88
2022/01/19 11:02:58;;;;;;;33.58;13.25;;;7.50;99.90;;;;;;5008496;28;20053;-91
2022/01/19 11:05:50;;;;;;;23.27;13.38;;;7.40;99.90;;;;;;5009993;28;20030;-88
2022/01/19 11:08:20;;;;;;;21.15;12.82;;;7.40;99.90;;;;;;5049737;28;20656;-88
2022/01/19 11:10:49;;;;;;;26.92;14.25;;;7.40;99.90;;;;;;5053837;28;20428;-88
2022/01/19 11:13:25;;;;;;;23.90;13.95;;;7.30;99.90;;;;;;5053050;28;20359;-87
2022/01/19 11:15:51;;;;;;;23.42;13.40;;;7.20;99.90;;;;;;5053529;28;20599;-88
2022/01/19 11:18:19;;;;;;;25.10;13.40;;;7.10;99.90;;;;;;5044731;28;20038;-87
2022/01/19 11:20:47;;;;;;;24.67;13.98;;;7.10;99.90;;;;;;5034850;28;20095;-88
2022/01/19 11:23:48;;;;;;;36.38;14.30;;;7.10;99.90;;;;;;5031369;28;20444;-89
2022/01/19 11:26:16;;;;;;;33.08;14.15;;;7.00;99.90;;;;;;4982037;28;20033;-88
2022/01/19 11:28:49;;;;;;;28.77;13.40;;;7.10;99.90;;;;;;5033134;28;20029;-89
2022/01/19 11:31:23;;;;;;;30.10;13.00;;;7.10;99.90;;;;;;5033719;28;20091;-89
2022/01/19 11:33:56;;;;;;;22.98;12.45;;;7.00;99.90;;;;;;5039211;28;20032;-89
2022/01/19 11:36:31;;;;;;;24.88;13.57;;;7.10;99.90;;;;;;5051647;28;20581;-88
2022/01/19 11:39:08;;;;;;;24.17;13.73;;;7.10;99.90;;;;;;5051291;28;20481;-89
2022/01/19 11:41:38;;;;;;;24.60;13.30;;;7.10;99.90;;;;;;5053281;28;20424;-89
2022/01/19 11:44:06;;;;;;;22.92;12.60;;;7.20;99.90;;;;;;5051676;28;20053;-89
2022/01/19 11:46:39;;;;;;;22.40;13.35;;;7.20;99.90;;;;;;5033844;28;20092;-89
2022/01/19 11:49:07;;;;;;;21.67;12.77;;;7.30;99.90;;;;;;5027908;28;20059;-89
2022/01/19 11:51:38;;;;;;;23.33;14.02;;;7.30;99.90;;;;;;5033197;28;20164;-89
2022/01/19 11:54:21;;;;;;;25.65;14.18;;;7.30;99.90;;;;;;5031668;28;20100;-88
2022/01/19 11:56:59;;;;;;;25.27;15.18;;;7.30;99.90;;;;;;5031696;28;20033;-89
2022/01/19 11:59:52;;;;;;;27.13;15.05;;;7.40;99.90;;;;;;5031559;28;20128;-89
2022/01/19 12:02:32;;;;;;;26.83;15.38;;;7.40;99.90;;;;;;5031840;28;20032;-89
2022/01/19 12:05:21;;;;;;;28.27;17.08;;;7.30;99.90;;;;;;5033020;28;20029;-91
2022/01/19 12:07:52;;;;;;;28.35;15.45;;;7.30;99.90;;;;;;5032137;28;20021;-91
2022/01/19 12:10:38;;;;;;;25.45;15.63;;;7.30;99.90;;;;;;5031624;28;20124;-93
2022/01/19 12:16:34;;;;;;;26.48;14.98;;;7.40;99.90;;;;;;5033168;28;20470;-90
2022/01/19 12:19:06;;;;;;;25.08;13.95;;;7.50;99.90;;;;;;5030368;28;20045;-89
2022/01/19 12:21:31;;;;;;;26.65;15.38;;;7.50;99.90;;;;;;5031387;28;20033;-89
2022/01/19 12:24:26;;;;;;;27.10;14.45;;;7.40;99.90;;;;;;5030907;28;20037;-89
2022/01/19 12:27:03;;;;;;;28.83;15.73;;;7.50;99.90;;;;;;5028638;28;20057;-90
2022/01/19 12:29:38;;;;;;;25.05;15.55;;;7.50;99.90;;;;;;5039547;28;20034;-90
2022/01/19 12:32:08;;;;;;;27.63;14.23;;;7.70;99.90;;;;;;5032463;28;20044;-89
2022/01/19 12:34:49;;;;;;;26.58;14.45;;;7.90;99.90;;;;;;5030313;28;20021;-89
2022/01/19 12:37:48;;;;;;;23.60;14.38;;;8.00;99.90;;;;;;5035194;28;20026;-88
2022/01/19 12:40:17;;;;;;;22.77;14.77;;;8.20;99.90;;;;;;5032633;28;20482;-88
2022/01/19 12:42:43;;;;;;;21.33;13.60;;;8.30;99.90;;;;;;5036652;28;20390;-90
2022/01/19 12:45:18;;;;;;;25.70;14.98;;;8.20;99.90;;;;;;5031262;28;20033;-91
2022/01/19 12:47:50;;;;;;;26.60;15.43;;;8.10;99.90;;;;;;5038043;28;20022;-90
2022/01/19 12:50:16;;;;;;;26.30;14.82;;;8.10;99.90;;;;;;5032466;28;20017;-88
2022/01/19 12:52:44;;;;;;;26.77;14.77;;;8.00;99.90;;;;;;5036088;28;20036;-89
2022/01/19 12:55:19;;;;;;;26.38;14.77;;;7.90;99.90;;;;;;5034407;28;20018;-89
2022/01/19 12:57:46;;;;;;;22.50;13.18;;;7.90;99.90;;;;;;5033788;28;20280;-88
2022/01/19 13:00:22;;;;;;;22.00;13.52;;;7.90;99.90;;;;;;5032630;28;20026;-89
2022/01/19 13:02:48;;;;;;;22.95;12.80;;;7.90;99.90;;;;;;5030933;28;20022;-89
2022/01/19 13:05:18;;;;;;;27.80;16.05;;;8.00;99.90;;;;;;5031723;28;20071;-88
2022/01/19 13:07:57;;;;;;;21.85;13.63;;;8.00;99.90;;;;;;5031431;28;20025;-88
2022/01/19 13:10:49;;;;;;;19.42;11.23;;;8.00;99.90;;;;;;5033143;28;20017;-88
2022/01/19 13:15:51;;;;;;;22.70;11.98;;;8.00;99.90;;;;;;5031745;28;20414;-89
2022/01/19 13:18:19;;;;;;;20.50;12.13;;;8.00;99.90;;;;;;5033869;28;20091;-88
2022/01/19 13:20:52;;;;;;;21.45;11.63;;;8.00;99.90;;;;;;5031158;28;20029;-89
2022/01/19 13:23:19;;;;;;;22.92;13.30;;;8.00;99.90;;;;;;5031485;28;20053;-89
2022/01/19 13:26:01;;;;;;;24.73;12.93;;;8.00;99.90;;;;;;5032112;28;20032;-89
2022/01/19 13:28:31;;;;;;;24.65;15.02;;;7.90;99.90;;;;;;5033573;28;20100;-91
2022/01/19 13:31:20;;;;;;;24.40;13.95;;;7.80;99.90;;;;;;5031083;28;20087;-90
2022/01/19 13:33:58;;;;;;;23.27;13.95;;;7.70;99.90;;;;;;5034795;28;20051;-89
2022/01/19 13:36:33;;;;;;;21.38;12.52;;;7.70;99.90;;;;;;5049209;28;20099;-92
2022/01/19 13:38:59;;;;;;;20.67;12.32;;;7.60;99.90;;;;;;5030902;28;20026;-89
2022/01/19 13:41:26;;;;;;;22.08;12.60;;;7.70;99.90;;;;;;5033434;28;20026;-89
2022/01/19 13:43:52;;;;;;;22.00;13.32;;;7.80;99.90;;;;;;5029830;28;20026;-88
2022/01/19 13:46:29;;;;;;;23.35;14.05;;;7.80;99.90;;;;;;5031650;28;20291;-89
2022/01/19 13:48:59;;;;;;;19.77;12.25;;;7.90;99.90;;;;;;5033415;28;20021;-89
2022/01/19 13:51:26;;;;;;;21.83;13.35;;;8.00;99.90;;;;;;5037039;28;20466;-89
2022/01/19 13:53:54;;;;;;;21.60;13.02;;;8.00;99.90;;;;;;5031412;28;20229;-89
2022/01/19 13:56:26;;;;;;;23.20;12.45;;;8.00;99.90;;;;;;5035027;28;20270;-90
2022/01/19 13:59:02;;;;;;;29.98;16.73;;;8.00;99.90;;;;;;5033543;28;20029;-88
2022/01/19 14:01:34;;;;;;;20.95;12.25;;;8.10;99.90;;;;;;5030308;28;20438;-89
2022/01/19 14:04:05;;;;;;;21.25;12.45;;;8.10;99.90;;;;;;5030261;28;20053;-88
2022/01/19 14:06:38;;;;;;;21.42;12.82;;;8.10;99.90;;;;;;5030507;28;20052;-88
2022/01/19 14:09:23;;;;;;;19.92;13.20;;;8.00;99.90;;;;;;5031213;28;20024;-88
2022/01/19 14:12:03;;;;;;;18.15;11.70;;;8.10;99.90;;;;;;5032287;28;20552;-89
2022/01/19 14:14:35;;;;;;;22.90;12.25;;;8.10;99.90;;;;;;5031799;28;20028;-89
2022/01/19 14:17:03;;;;;;;17.77;10.68;;;8.10;99.90;;;;;;5032326;28;20132;-89
2022/01/19 14:19:33;;;;;;;18.98;10.27;;;8.20;99.90;;;;;;5030992;28;20038;-88
2022/01/19 14:22:07;;;;;;;17.65;10.32;;;8.20;99.90;;;;;;5029925;28;20108;-85
2022/01/19 14:24:47;;;;;;;18.33;10.57;;;8.20;99.90;;;;;;5032131;28;20517;-91
2022/01/19 14:27:24;;;;;;;20.10;11.02;;;8.40;99.90;;;;;;5030352;28;20037;-88
2022/01/19 14:30:11;;;;;;;18.52;10.95;;;8.40;99.90;;;;;;5030372;28;20355;-88
2022/01/19 14:32:39;;;;;;;20.55;10.98;;;8.30;99.90;;;;;;5029282;28;20030;-89